createdAt,value
2022-08-07T00:01:05.082Z,97463.97
2022-08-07T00:03:51.669Z,97469.78
2022-08-07T00:06:18.295Z,97466.75
2022-08-07T00:08:56.095Z,97461.50
2022-08-07T00:11:33.165Z,97465.03
2022-08-07T00:14:00.164Z,97467.69
2022-08-07T00:16:28.618Z,97465.94
2022-08-07T00:18:55.448Z,97469.88
2022-08-07T00:21:56.195Z,97465.97
2022-08-07T00:24:09.077Z,97466.47
2022-08-07T00:26:49.139Z,97462.16
2022-08-07T00:29:26.001Z,97459.28
2022-08-07T00:32:01.881Z,97457.44
2022-08-07T00:34:29.070Z,97452.81
2022-08-07T00:36:56.402Z,97459.13
2022-08-07T00:39:23.091Z,97458.97
2022-08-07T00:42:01.359Z,97452.09
2022-08-07T00:44:31.310Z,97453.06
2022-08-07T00:46:59.808Z,97456.69
2022-08-07T00:50:19.005Z,97453.34
2022-08-07T00:52:14.015Z,97447.63
2022-08-07T00:54:44.408Z,97455.03
2022-08-07T00:57:12.513Z,97468.47
2022-08-07T00:59:39.351Z,97461.13
2022-08-07T01:02:14.078Z,97465.59
2022-08-07T01:04:58.429Z,97460.41
2022-08-07T01:07:27.663Z,97459.56
2022-08-07T01:10:06.945Z,97456.69
2022-08-07T01:12:54.042Z,97463.31
2022-08-07T01:16:00.516Z,97452.38
2022-08-07T01:18:17.108Z,97465.38
2022-08-07T01:20:57.487Z,97469.25
2022-08-07T01:23:46.640Z,97464.28
2022-08-07T01:26:20.267Z,97459.19
2022-08-07T01:28:50.789Z,97466.78
2022-08-07T01:31:41.867Z,97462.56
2022-08-07T01:34:14.223Z,97457.28
2022-08-07T01:36:44.090Z,97455.13
2022-08-07T01:39:15.368Z,97454.47
2022-08-07T01:42:01.705Z,97452.03
2022-08-07T01:44:36.047Z,97453.06
2022-08-07T01:47:14.677Z,97448.97
2022-08-07T01:49:53.564Z,97452.31
2022-08-07T01:52:26.607Z,97450.63
2022-08-07T01:54:56.241Z,97451.75
2022-08-07T01:58:05.654Z,97448.66
2022-08-07T02:00:28.896Z,97446.94
2022-08-07T02:03:11.698Z,97442.78
2022-08-07T02:06:00.035Z,97446.06
2022-08-07T02:08:35.532Z,97448.00
2022-08-07T02:11:03.824Z,97449.09
2022-08-07T02:13:57.981Z,97442.56
2022-08-07T02:16:28.736Z,97432.25
2022-08-07T02:19:05.651Z,97439.38
2022-08-07T02:21:55.328Z,97442.75
2022-08-07T02:24:24.683Z,97435.78
2022-08-07T02:26:52.530Z,97438.44
2022-08-07T02:29:21.918Z,97430.50
2022-08-07T02:31:50.736Z,97427.22
2022-08-07T02:34:20.476Z,97427.47
2022-08-07T02:36:52.436Z,97426.13
2022-08-07T02:39:43.783Z,97417.72
2022-08-07T02:42:16.287Z,97413.00
2022-08-07T02:44:48.883Z,97420.09
2022-08-07T02:47:23.362Z,97403.81
2022-08-07T02:49:58.754Z,97415.50
2022-08-07T02:52:52.874Z,97407.06
2022-08-07T02:55:27.631Z,97416.41
2022-08-07T02:58:13.449Z,97419.81
2022-08-07T03:00:47.437Z,97414.22
2022-08-07T03:03:21.170Z,97410.25
2022-08-07T03:05:53.599Z,97409.72
2022-08-07T03:08:26.936Z,97409.44
2022-08-07T03:10:58.232Z,97408.94
2022-08-07T03:13:39.039Z,97410.94
2022-08-07T03:16:16.815Z,97402.69
2022-08-07T03:18:45.035Z,97402.88
2022-08-07T03:21:18.950Z,97403.09
2022-08-07T03:24:20.999Z,97416.41
2022-08-07T03:26:51.001Z,97411.69
2022-08-07T03:29:27.605Z,97414.88
2022-08-07T03:31:56.419Z,97414.53
2022-08-07T03:34:27.328Z,97429.50
2022-08-07T03:36:59.875Z,97424.31
2022-08-07T03:40:00.021Z,97413.81
2022-08-07T03:42:28.609Z,97418.38
2022-08-07T03:44:58.089Z,97422.03
2022-08-07T03:47:28.035Z,97429.00
2022-08-07T03:50:00.065Z,97426.16
2022-08-07T03:52:34.274Z,97421.56
2022-08-07T03:55:07.170Z,97425.56
2022-08-07T03:58:34.089Z,97425.09
2022-08-07T04:00:33.851Z,97425.81
2022-08-07T04:03:04.048Z,97426.84
2022-08-07T04:05:40.131Z,97429.41
2022-08-07T04:08:16.230Z,97418.06
2022-08-07T04:10:54.074Z,97430.84
2022-08-07T04:14:14.030Z,97423.91
2022-08-07T04:16:31.370Z,97431.72
2022-08-07T04:19:01.785Z,97430.44
2022-08-07T04:21:33.557Z,97428.88
2022-08-07T04:24:07.911Z,97434.00
2022-08-07T04:26:39.019Z,97427.56
2022-08-07T04:29:10.865Z,97428.19
2022-08-07T04:32:03.253Z,97435.38
2022-08-07T04:34:32.956Z,97430.72
2022-08-07T04:37:01.328Z,97427.56
2022-08-07T04:39:29.310Z,97430.75
2022-08-07T04:42:04.051Z,97430.00
2022-08-07T04:44:31.329Z,97429.53
2022-08-07T04:47:23.552Z,97432.47
2022-08-07T04:50:11.352Z,97440.13
2022-08-07T04:52:58.893Z,97435.31
2022-08-07T04:58:16.494Z,97436.41
2022-08-07T04:58:54.590Z,97436.81
2022-08-07T05:01:30.266Z,97430.47
2022-08-07T05:04:33.926Z,97426.13
2022-08-07T05:07:20.977Z,97434.91
2022-08-07T05:10:04.560Z,97435.25
2022-08-07T05:13:09.767Z,97434.97
2022-08-07T05:15:50.619Z,97439.41
2022-08-07T05:18:27.433Z,97437.56
2022-08-07T05:21:00.519Z,97430.91
2022-08-07T05:23:36.075Z,97440.03
2022-08-07T05:26:11.774Z,97436.63
2022-08-07T05:28:48.752Z,97432.94
2022-08-07T05:31:22.999Z,97435.06
2022-08-07T05:34:04.620Z,97435.91
2022-08-07T05:36:39.069Z,97433.66
2022-08-07T05:40:06.971Z,97439.72
2022-08-07T05:42:05.351Z,97433.94
2022-08-07T05:44:46.624Z,97428.38
2022-08-07T05:47:37.892Z,97434.06
2022-08-07T05:50:12.901Z,97435.84
2022-08-07T05:52:40.185Z,97440.91
2022-08-07T05:55:10.957Z,97438.56
2022-08-07T05:57:42.944Z,97431.03
2022-08-07T06:00:16.317Z,97435.06
2022-08-07T06:02:51.618Z,97422.19
2022-08-07T06:05:25.989Z,97428.41
2022-08-07T06:08:14.847Z,97423.97
2022-08-07T06:10:51.248Z,97433.16
2022-08-07T06:13:19.787Z,97432.34
2022-08-07T06:16:08.502Z,97424.13
2022-08-07T06:18:39.511Z,97430.41
2022-08-07T06:22:15.241Z,97426.47
2022-08-07T06:24:46.013Z,97429.84
2022-08-07T06:26:45.048Z,97425.50
2022-08-07T06:29:13.870Z,97421.94
2022-08-07T06:31:49.964Z,97418.88
2022-08-07T06:34:20.865Z,97422.72
2022-08-07T06:36:52.178Z,97423.63
2022-08-07T06:40:17.640Z,97427.63
2022-08-07T06:42:37.300Z,97429.00
2022-08-07T06:45:24.813Z,97423.31
2022-08-07T06:47:57.614Z,97426.69
2022-08-07T06:50:30.462Z,97426.78
2022-08-07T06:52:59.292Z,97420.22
2022-08-07T06:56:00.120Z,97424.31
2022-08-07T06:58:21.560Z,97426.16
2022-08-07T07:00:59.854Z,97417.94
2022-08-07T07:03:49.088Z,97422.66
2022-08-07T07:06:14.221Z,97420.28
2022-08-07T07:08:50.553Z,97425.69
2022-08-07T07:12:07.723Z,97418.44
2022-08-07T07:14:08.333Z,97416.53
2022-08-07T07:16:49.607Z,97411.13
2022-08-07T07:19:57.263Z,97416.34
2022-08-07T07:22:35.783Z,97414.72
2022-08-07T07:25:02.848Z,97411.22
2022-08-07T07:27:55.372Z,97404.38
2022-08-07T07:30:32.805Z,97408.03
2022-08-07T07:33:11.612Z,97399.72
2022-08-07T07:35:44.061Z,97404.59
2022-08-07T07:38:28.985Z,97399.91
2022-08-07T07:41:02.264Z,97402.03
2022-08-07T07:43:47.753Z,97391.63
2022-08-07T07:46:40.465Z,97395.91
2022-08-07T07:50:15.885Z,97400.53
2022-08-07T07:51:57.904Z,97390.59
2022-08-07T07:54:27.500Z,97391.28
2022-08-07T07:56:57.463Z,97384.31
2022-08-07T07:59:52.703Z,97382.25
2022-08-07T08:02:34.306Z,97382.19
2022-08-07T08:05:04.437Z,97379.91
2022-08-07T08:07:35.706Z,97373.72
2022-08-07T08:10:14.769Z,97377.81
2022-08-07T08:13:00.165Z,97376.75
2022-08-07T08:15:57.497Z,97369.69
2022-08-07T08:18:24.390Z,97371.63
2022-08-07T08:20:51.830Z,97368.53
2022-08-07T08:23:41.282Z,97369.38
2022-08-07T08:26:28.116Z,97361.66
2022-08-07T08:28:56.748Z,97365.72
2022-08-07T08:31:59.164Z,97362.25
2022-08-07T08:34:32.717Z,97361.28
2022-08-07T08:37:01.081Z,97363.84
2022-08-07T08:39:39.350Z,97367.75
2022-08-07T08:42:26.903Z,97365.03
2022-08-07T08:45:12.989Z,97367.41
2022-08-07T08:47:55.114Z,97362.66
2022-08-07T08:50:28.371Z,97364.53
2022-08-07T08:53:29.383Z,97369.16
2022-08-07T08:56:11.272Z,97358.69
2022-08-07T08:58:58.025Z,97361.22
2022-08-07T09:01:39.990Z,97365.25
2022-08-07T09:04:26.071Z,97356.28
2022-08-07T09:07:06.080Z,97351.03
2022-08-07T09:10:03.190Z,97355.31
2022-08-07T09:13:09.530Z,97347.44
2022-08-07T09:16:21.618Z,97352.78
2022-08-07T09:18:58.573Z,97352.16
2022-08-07T09:21:57.811Z,97358.34
2022-08-07T09:24:56.096Z,97352.22
2022-08-07T09:28:00.268Z,97339.66
2022-08-07T09:30:49.686Z,97348.59
2022-08-07T09:33:58.285Z,97336.56
2022-08-07T09:36:37.015Z,97337.16
2022-08-07T09:39:52.565Z,97355.34
2022-08-07T09:42:24.922Z,97346.50
2022-08-07T09:47:26.254Z,97341.91
2022-08-07T09:48:14.626Z,97330.38
2022-08-07T09:51:14.809Z,97334.03
2022-08-07T09:54:03.693Z,97330.50
2022-08-07T09:56:46.417Z,97323.09
2022-08-07T09:59:44.670Z,97324.47
2022-08-07T10:02:55.838Z,97321.34
2022-08-07T10:06:00.826Z,97307.50
2022-08-07T10:08:52.728Z,97311.41
2022-08-07T10:12:01.635Z,97306.75
2022-08-07T10:14:31.272Z,97304.19
2022-08-07T10:17:17.090Z,97304.38
2022-08-07T10:20:21.838Z,97305.16
2022-08-07T10:23:10.675Z,97309.13
2022-08-07T10:26:24.742Z,97306.00
2022-08-07T10:29:06.299Z,97303.81
2022-08-07T10:32:37.135Z,97295.91
2022-08-07T10:35:55.837Z,97294.75
2022-08-07T10:38:35.754Z,97291.09
2022-08-07T10:41:46.243Z,97281.03
2022-08-07T10:44:33.872Z,97291.06
2022-08-07T10:47:17.419Z,97288.16
2022-08-07T10:49:51.217Z,97279.38
2022-08-07T10:52:34.102Z,97282.50
2022-08-07T10:55:26.610Z,97272.91
2022-08-07T10:58:33.384Z,97263.84
2022-08-07T11:01:12.705Z,97271.34
2022-08-07T11:03:54.870Z,97276.78
2022-08-07T11:06:50.401Z,97271.75
2022-08-07T11:10:09.745Z,97267.72
2022-08-07T11:12:31.649Z,97262.75
2022-08-07T11:15:14.796Z,97262.00
2022-08-07T11:17:56.609Z,97262.00
2022-08-07T11:20:52.686Z,97250.94
2022-08-07T11:23:30.278Z,97247.69
2022-08-07T11:26:24.721Z,97249.94
2022-08-07T11:29:13.064Z,97244.22
2022-08-07T11:32:15.183Z,97229.22
2022-08-07T11:34:59.615Z,97234.06
2022-08-07T11:37:57.880Z,97235.31
2022-08-07T11:40:55.523Z,97236.69
2022-08-07T11:43:29.747Z,97230.00
2022-08-07T11:46:11.878Z,97221.78
2022-08-07T11:49:27.765Z,97226.59
2022-08-07T11:52:35.676Z,97224.91
2022-08-07T11:55:18.815Z,97223.34
2022-08-07T11:58:40.806Z,97219.22
2022-08-07T12:01:24.904Z,97218.44
2022-08-07T12:04:17.469Z,97216.75
2022-08-07T12:07:03.036Z,97216.84
2022-08-07T12:09:52.776Z,97222.72
2022-08-07T12:12:28.288Z,97217.34
2022-08-07T12:15:03.912Z,97221.56
2022-08-07T12:17:55.978Z,97217.84
2022-08-07T12:20:46.239Z,97205.16
2022-08-07T12:24:07.523Z,97204.34
2022-08-07T12:26:46.883Z,97201.41
2022-08-07T12:29:44.046Z,97203.75
2022-08-07T12:32:24.044Z,97206.97
2022-08-07T12:34:56.166Z,97206.25
2022-08-07T12:37:27.841Z,97194.09
2022-08-07T12:40:44.129Z,97196.31
2022-08-07T12:43:03.162Z,97193.19
2022-08-07T12:46:26.617Z,97190.44
2022-08-07T12:49:10.130Z,97190.97
2022-08-07T12:52:13.652Z,97179.34
2022-08-07T12:55:09.680Z,97189.41
2022-08-07T12:58:01.395Z,97176.94
2022-08-07T13:00:49.726Z,97177.38
2022-08-07T13:03:54.995Z,97175.47
2022-08-07T13:06:27.155Z,97163.22
2022-08-07T13:10:20.718Z,97151.06
2022-08-07T13:12:16.184Z,97175.28
2022-08-07T13:14:59.345Z,97168.28
2022-08-07T13:17:40.782Z,97163.34
2022-08-07T13:20:18.876Z,97166.72
2022-08-07T13:22:55.837Z,97153.34
2022-08-07T13:25:34.900Z,97156.59
2022-08-07T13:28:13.656Z,97155.28
2022-08-07T13:30:52.193Z,97158.06
2022-08-07T13:34:30.594Z,97144.72
2022-08-07T13:36:30.503Z,97152.09
2022-08-07T13:39:13.185Z,97157.50
2022-08-07T13:41:57.577Z,97154.84
2022-08-07T13:44:36.807Z,97148.66
2022-08-07T13:47:09.429Z,97157.03
2022-08-07T13:50:35.062Z,97146.84
2022-08-07T13:52:39.560Z,97137.38
2022-08-07T13:55:25.876Z,97128.94
2022-08-07T13:58:28.032Z,97128.38
2022-08-07T14:01:09.182Z,97134.09
2022-08-07T14:04:05.445Z,97127.22
2022-08-07T14:06:36.914Z,97124.00
2022-08-07T14:09:06.407Z,97128.72
2022-08-07T14:12:00.092Z,97132.44
2022-08-07T14:14:42.005Z,97116.69
2022-08-07T14:17:32.500Z,97121.19
2022-08-07T14:20:42.160Z,97120.28
2022-08-07T14:23:08.551Z,97115.00
2022-08-07T14:25:45.975Z,97114.75
2022-08-07T14:28:17.584Z,97112.50
2022-08-07T14:30:52.342Z,97119.59
2022-08-07T14:33:22.293Z,97121.06
2022-08-07T14:35:55.751Z,97111.72
2022-08-07T14:38:30.813Z,97124.88
2022-08-07T14:41:34.197Z,97120.19
2022-08-07T14:44:17.852Z,97119.16
2022-08-07T14:46:52.057Z,97126.25
2022-08-07T14:49:57.007Z,97115.28
2022-08-07T14:52:27.737Z,97112.06
2022-08-07T14:54:59.017Z,97107.19
2022-08-07T14:57:58.701Z,97106.94
2022-08-07T15:00:29.684Z,97096.91
2022-08-07T15:02:59.382Z,97103.72
2022-08-07T15:05:30.338Z,97106.81
2022-08-07T15:08:04.594Z,97100.06
2022-08-07T15:10:32.264Z,97098.94
2022-08-07T15:13:05.741Z,97104.44
2022-08-07T15:15:43.034Z,97095.50
2022-08-07T15:18:28.534Z,97099.44
2022-08-07T15:21:08.011Z,97097.00
2022-08-07T15:25:13.485Z,97101.97
2022-08-07T15:26:35.331Z,97097.28
2022-08-07T15:32:01.767Z,97088.34
2022-08-07T15:34:37.638Z,97093.22
2022-08-07T15:37:27.375Z,97093.97
2022-08-07T15:39:59.161Z,97091.16
2022-08-07T15:42:43.260Z,97085.13
2022-08-07T15:45:25.710Z,97083.44
2022-08-07T15:51:09.335Z,97090.25
2022-08-07T15:53:53.205Z,97085.88
2022-08-07T15:56:33.154Z,97084.97
2022-08-07T15:59:04.128Z,97077.81
2022-08-07T16:01:39.335Z,97078.94
2022-08-07T16:04:15.314Z,97080.66
2022-08-07T16:06:52.860Z,97072.63
2022-08-07T16:09:42.488Z,97068.25
2022-08-07T16:12:29.133Z,97069.34
2022-08-07T16:15:05.997Z,97077.63
2022-08-07T16:18:01.740Z,97063.50
2022-08-07T16:20:43.979Z,97067.97
2022-08-07T16:23:58.985Z,97068.75
2022-08-07T16:26:30.951Z,97065.63
2022-08-07T16:30:11.186Z,97063.75
2022-08-07T16:32:32.870Z,97061.78
2022-08-07T16:35:51.972Z,97064.09
2022-08-07T16:38:29.605Z,97073.56
2022-08-07T16:41:19.481Z,97068.88
2022-08-07T16:44:53.608Z,97067.84
2022-08-07T16:47:45.444Z,97060.69
2022-08-07T16:50:28.132Z,97065.31
2022-08-07T16:53:55.522Z,97070.78
2022-08-07T16:56:42.524Z,97069.81
2022-08-07T16:59:24.579Z,97074.50
2022-08-07T17:02:52.248Z,97070.59
2022-08-07T17:06:01.765Z,97073.50
2022-08-07T17:08:09.216Z,97074.69
2022-08-07T17:10:54.829Z,97066.63
2022-08-07T17:13:40.329Z,97074.16
2022-08-07T17:16:33.325Z,97075.06
2022-08-07T17:19:24.003Z,97069.34
2022-08-07T17:22:16.519Z,97069.56
2022-08-07T17:25:03.732Z,97074.41
2022-08-07T17:27:58.252Z,97078.81
2022-08-07T17:30:32.091Z,97071.31
2022-08-07T17:34:09.248Z,97073.41
2022-08-07T17:36:00.822Z,97074.03
2022-08-07T17:38:35.291Z,97081.59
2022-08-07T17:42:02.700Z,97085.13
2022-08-07T17:44:41.449Z,97087.88
2022-08-07T17:47:16.550Z,97091.28
2022-08-07T17:50:16.534Z,97092.91
2022-08-07T17:53:06.023Z,97095.09
2022-08-07T17:55:54.732Z,97100.75
2022-08-07T17:59:06.601Z,97094.13
2022-08-07T18:01:56.572Z,97094.00
2022-08-07T18:04:34.452Z,97093.22
2022-08-07T18:07:19.488Z,97099.22
2022-08-07T18:10:06.327Z,97100.63
2022-08-07T18:13:09.989Z,97096.47
2022-08-07T18:15:39.331Z,97103.88
2022-08-07T18:18:46.612Z,97103.69
2022-08-07T18:21:42.040Z,97106.53
2022-08-07T18:24:35.308Z,97105.63
2022-08-07T18:27:17.279Z,97103.06
2022-08-07T18:30:07.142Z,97106.22
2022-08-07T18:33:12.223Z,97110.44
2022-08-07T18:36:14.056Z,97119.97
2022-08-07T18:40:05.280Z,97119.22
2022-08-07T18:42:08.263Z,97129.16
2022-08-07T18:45:44.772Z,97128.59
2022-08-07T18:48:02.870Z,97133.84
2022-08-07T18:50:47.500Z,97140.28
2022-08-07T18:53:36.691Z,97144.91
2022-08-07T18:56:35.395Z,97150.00
2022-08-07T18:59:47.186Z,97161.63
2022-08-07T19:02:32.137Z,97167.00
2022-08-07T19:05:15.093Z,97169.50
2022-08-07T19:08:05.198Z,97179.72
2022-08-07T19:10:51.652Z,97182.22
2022-08-07T19:13:50.239Z,97192.81
2022-08-07T19:17:06.088Z,97196.56
2022-08-07T19:19:54.269Z,97196.63
2022-08-07T19:22:30.830Z,97202.75
2022-08-07T19:24:58.908Z,97198.13
2022-08-07T19:28:57.106Z,97207.72
2022-08-07T19:31:02.150Z,97211.81
2022-08-07T19:33:13.239Z,97212.78
2022-08-07T19:35:46.809Z,97220.56
2022-08-07T19:38:17.691Z,97209.31
2022-08-07T19:40:50.038Z,97215.09
2022-08-07T19:43:21.573Z,97220.28
2022-08-07T19:45:53.118Z,97213.25
2022-08-07T19:48:53.647Z,97223.78
2022-08-07T19:51:50.508Z,97228.22
2022-08-07T19:54:30.888Z,97227.53
2022-08-07T19:58:01.224Z,97217.78
2022-08-07T19:59:54.229Z,97229.22
2022-08-07T20:02:33.572Z,97224.34
2022-08-07T20:05:07.850Z,97226.06
2022-08-07T20:07:47.320Z,97229.50
2022-08-07T20:10:37.128Z,97225.66
2022-08-07T20:13:26.978Z,97225.59
2022-08-07T20:15:57.737Z,97227.94
2022-08-07T20:18:33.024Z,97227.75
2022-08-07T20:21:22.027Z,97236.84
2022-08-07T20:23:57.629Z,97226.78
2022-08-07T20:26:32.240Z,97228.44
2022-08-07T20:29:46.701Z,97219.44
2022-08-07T20:31:59.703Z,97229.06
2022-08-07T20:34:49.722Z,97214.31
2022-08-07T20:37:21.799Z,97213.53
2022-08-07T20:40:02.158Z,97224.75
2022-08-07T20:42:33.367Z,97218.63
2022-08-07T20:45:01.279Z,97215.94
2022-08-07T20:47:55.984Z,97212.81
2022-08-07T20:50:20.795Z,97213.66
2022-08-07T20:52:51.490Z,97229.34
2022-08-07T20:55:25.469Z,97212.72
2022-08-07T20:58:03.864Z,97211.13
2022-08-07T21:00:44.228Z,97209.53
2022-08-07T21:03:16.325Z,97204.25
2022-08-07T21:05:56.509Z,97213.28
2022-08-07T21:08:39.336Z,97212.81
2022-08-07T21:11:14.204Z,97218.34
2022-08-07T21:14:16.532Z,97219.44
2022-08-07T21:16:56.850Z,97215.97
2022-08-07T21:19:51.468Z,97222.34
2022-08-07T21:22:30.724Z,97209.88
2022-08-07T21:25:12.778Z,97221.06
2022-08-07T21:28:10.173Z,97216.59
2022-08-07T21:30:43.147Z,97220.09
2022-08-07T21:33:22.502Z,97212.41
2022-08-07T21:36:12.251Z,97219.03
2022-08-07T21:39:05.559Z,97217.97
2022-08-07T21:42:37.738Z,97214.03
2022-08-07T21:46:08.452Z,97217.78
2022-08-07T21:48:28.787Z,97210.41
2022-08-07T21:51:27.967Z,97221.81
2022-08-07T21:54:11.903Z,97229.50
2022-08-07T21:57:39.308Z,97229.25
2022-08-07T22:02:35.374Z,97226.34
2022-08-07T22:05:05.081Z,97228.72
2022-08-07T22:07:58.386Z,97235.88
2022-08-07T22:10:27.756Z,97237.97
2022-08-07T22:13:02.725Z,97235.84
2022-08-07T22:16:35.820Z,97238.25
2022-08-07T22:19:12.946Z,97240.34
2022-08-07T22:22:05.321Z,97230.81
2022-08-07T22:24:55.354Z,97234.25
2022-08-07T22:28:03.000Z,97241.94
2022-08-07T22:30:21.247Z,97235.59
2022-08-07T22:33:13.053Z,97240.34
2022-08-07T22:36:08.415Z,97240.59
2022-08-07T22:39:02.223Z,97240.59
2022-08-07T22:42:03.061Z,97236.34
2022-08-07T22:44:29.591Z,97239.25
2022-08-07T22:47:27.079Z,97247.47
2022-08-07T22:50:07.347Z,97240.03
2022-08-07T22:52:57.013Z,97244.00
2022-08-07T22:55:45.691Z,97248.50
2022-08-07T22:58:37.919Z,97242.66
2022-08-07T23:01:23.398Z,97245.03
2022-08-07T23:03:58.548Z,97255.63
2022-08-07T23:06:40.546Z,97241.03
2022-08-07T23:10:04.411Z,97243.41
2022-08-07T23:12:34.039Z,97252.13
2022-08-07T23:16:05.909Z,97248.69
2022-08-07T23:19:13.746Z,97249.47
2022-08-07T23:21:52.411Z,97252.06
2022-08-07T23:24:45.752Z,97254.69
2022-08-07T23:27:37.059Z,97250.44
2022-08-07T23:31:05.489Z,97252.97
2022-08-07T23:34:22.990Z,97262.78
2022-08-07T23:37:20.414Z,97256.06
2022-08-07T23:40:07.704Z,97261.91
2022-08-07T23:42:46.665Z,97259.25
2022-08-07T23:45:33.188Z,97261.91
2022-08-07T23:48:33.140Z,97253.22
2022-08-07T23:53:01.552Z,97252.63
2022-08-07T23:54:19.597Z,97250.75
2022-08-07T23:57:09.385Z,97252.63
